Lauder, United Kingdom
Current Conditions -  °F | °C
As of 7:20 PM on Monday 22 Dec 2014 (Local Time) from EGPH Reporting Station
Few Clouds Few Clouds  
Wind Chill: 40°   Ceiling: Unl
Heat Index: 46°   Visibility: 6mi
Dew Point: 43°   Wind: 14mph
Humidity: 87%   Direction: 250°WSW
Pressure: 29.65"   Gusts: NA
Location:  55.72°N, 2.75°W
Report Text: EGPH 221920Z 25012KT 9999 FEW018 08/06 Q1004
Loading
Personal Weather Stations






























Interactive Weather Map New forecast layout! Learn more

10-Day Weather Forecast

Advertisements
Track Severe Weather on mobile